Terminal Aerodrome Forecast
Issued by NWS Pocatello, ID

Home | Current Version | Previous Version | Text Only | Print | Product List | Glossary On
Versions: 1 2 3 4 5 6 7 8 9 10 11 12 13 14 15 16
000
FTUS45 KPIH 040520
TAFPIH
TAF
KPIH 040520Z 0406/0506 VRB06KT P6SM SCT150
     FM041900 28008KT P6SM VCTS SCT080CB OVC150
     FM050300 22009KT P6SM SCT080 BKN150=

USA.gov is the U.S. government's official web portal to all federal, state and local government web resources and services.